M I D A S
Marine Information and Data Acquisition System
Tripno 1031 of the Zeeleeuw from 2006-02-15 08:21:39 to 2006-02-15 13:48:44
Back to CruiseResearch ActivitiesStationsMapUnderway DataData graphs

EquipmentUnitsComment
TimeDGPSUTC
LatitudeDGPSDM.mWGS84
LongitudeDGPSDM.mWGS84
TemperatureSBE03/SBE38deg celciusITS90
ConductivitySBE21S/mITS90
SalinitySBE21 Practical Salinity Units
ChlorophylAChelsea fluorimeterg/lCalibrated in Aceton
Missing or incorrect values are displayed as -999
Sea surface data collected by the RV Zeeleeuw from 2006-02-15 08:09:40 to 2006-02-15 13:59:57
Time Latitude Longitude Temperature Conductivity Salinity ChlorophylA
2006-02-15 08:10:44 51°13.61 2°56.052 -999 2.362974 24.322412 -0.376736
2006-02-15 08:11:45 51°13.634 2°55.964 -999 2.273017 23.460128 -0.005933
2006-02-15 08:12:45 51°13.663 2°55.87 -999 2.18638 22.545441 -0.107061
2006-02-15 08:13:44 51°13.682 2°55.784 -999 2.108739 21.684208 -0.039642
2006-02-15 08:14:45 51°13.699 2°55.779 -999 2.194434 22.651836 0.39858
2006-02-15 08:15:45 51°13.71 2°55.775 -999 2.063006 21.12378 0.567127
2006-02-15 08:16:45 51°13.722 2°55.75 -999 2.036683 20.845272 0.465999
2006-02-15 08:17:45 51°13.819 2°55.647 -999 1.768374 17.847792 0.465999
2006-02-15 08:18:45 51°13.96 2°55.541 -999 1.691416 16.998106 0.93793
2006-02-15 08:19:44 51°14.092 2°55.443 -999 2.358226 24.558844 0.331161
2006-02-15 08:20:45 51°14.232 2°55.311 -999 2.166762 22.360443 0.499708
2006-02-15 08:21:45 51°14.341 2°55.118 -999 2.145287 22.131566 0.297452
2006-02-15 08:22:44 51°14.456 2°54.891 -999 2.427849 25.392824 0.095195
2006-02-15 08:23:44 51°14.487 2°54.567 -999 2.658276 28.065189 -0.275608
2006-02-15 08:24:44 51°14.421 2°54.251 -999 2.651145 27.978186 -0.376736
2006-02-15 08:25:44 51°14.312 2°53.961 -999 2.747481 29.107815 -0.444155
2006-02-15 08:26:44 51°14.211 2°53.656 -999 2.832049 30.104709 -0.511574
2006-02-15 08:27:44 51°14.102 2°53.353 -999 2.868239 30.544824 -0.646411
2006-02-15 08:28:44 51°13.991 2°53.05 -999 2.881784 30.713235 -0.74754
2006-02-15 08:29:44 51°13.886 2°52.742 -999 2.884266 30.738719 -0.781249
2006-02-15 08:30:44 51°13.773 2°52.441 -999 2.900191 30.929761 -0.781249
2006-02-15 08:31:44 51°13.653 2°52.147 -999 2.896365 30.885665 -0.781249
2006-02-15 08:32:44 51°13.533 2°51.854 -999 2.90867 31.023044 -0.848668
2006-02-15 08:33:44 51°13.414 2°51.559 -999 2.910222 31.044106 -0.848668
2006-02-15 08:34:44 51°13.297 2°51.263 -999 2.91715 31.121948 -0.882377
2006-02-15 08:35:44 51°13.178 2°50.97 -999 2.922217 31.176 -0.916087
2006-02-15 08:36:44 51°13.061 2°50.672 -999 2.92532 31.203155 -0.882377
2006-02-15 08:37:44 51°12.941 2°50.379 -999 2.92625 31.211299 -0.882377
2006-02-15 08:38:44 51°12.823 2°50.087 -999 2.936695 31.329606 -0.916087
2006-02-15 08:39:44 51°12.706 2°49.79 -999 2.933489 31.288086 -0.916087
2006-02-15 08:40:44 51°12.597 2°49.484 -999 2.928836 31.232353 -0.916087
2006-02-15 08:41:44 51°12.495 2°49.174 -999 2.931835 31.264843 -0.882377
2006-02-15 08:42:44 51°12.403 2°48.855 -999 2.940004 31.359164 -0.882377
2006-02-15 08:43:44 51°12.308 2°48.538 -999 2.941659 31.370168 -0.916087
2006-02-15 08:44:44 51°12.213 2°48.222 -999 2.932558 31.259276 -0.916087
2006-02-15 08:45:44 51°12.121 2°47.902 -999 2.939177 31.335296 -0.916087
2006-02-15 08:46:45 51°12.026 2°47.576 -999 2.933282 31.264978 -0.916087
2006-02-15 08:47:44 51°11.937 2°47.261 -999 2.947761 31.441081 -0.916087
2006-02-15 08:48:44 51°11.851 2°46.937 -999 2.939384 31.333966 -0.916087
2006-02-15 08:49:44 51°11.778 2°46.604 -999 2.949415 31.451123 -0.916087
2006-02-15 08:50:44 51°11.703 2°46.271 -999 2.949002 31.440587 -0.949796
2006-02-15 08:51:44 51°11.627 2°45.939 -999 2.947864 31.421534 -0.949796
2006-02-15 08:52:44 51°11.552 2°45.605 -999 2.943003 31.360563 -0.916087
2006-02-15 08:53:44 51°11.479 2°45.271 -999 2.949002 31.43115 -0.949796
2006-02-15 08:54:44 51°11.403 2°44.94 -999 2.941969 31.345572 -0.983506
2006-02-15 08:55:44 51°11.332 2°44.606 -999 2.936178 31.268066 -0.983506
2006-02-15 08:56:44 51°11.276 2°44.266 -999 2.958826 31.522214 -0.949796
2006-02-15 08:57:44 51°11.222 2°43.925 -999 2.959964 31.525199 -0.949796
2006-02-15 08:58:44 51°11.167 2°43.59 -999 2.963894 31.556295 -0.983506
2006-02-15 08:59:44 51°11.112 2°43.253 -999 2.964411 31.544417 -1.017215
2006-02-15 09:00:44 51°11.06 2°42.915 -999 2.969375 31.58858 -1.017215
2006-02-15 09:01:44 51°11.006 2°42.578 -999 2.97134 31.597484 -1.050924
2006-02-15 09:02:45 51°10.953 2°42.236 -999 2.979924 31.68791 -1.017215
2006-02-15 09:03:44 51°10.901 2°41.907 -999 2.980544 31.68004 -1.017215
2006-02-15 09:04:44 51°10.85 2°41.573 -999 2.984371 31.697501 -1.017215
2006-02-15 09:05:44 51°10.799 2°41.238 -999 2.981578 31.641111 -1.050924
2006-02-15 09:06:44 51°10.75 2°40.902 -999 2.999057 31.825227 -1.050924
2006-02-15 09:07:44 51°10.701 2°40.565 -999 2.995437 31.761944 -1.017215
2006-02-15 09:08:44 51°10.65 2°40.231 -999 2.997506 31.778605 -1.017215
2006-02-15 09:09:44 51°10.595 2°39.899 -999 3.016227 31.985626 -1.050924
2006-02-15 09:10:44 51°10.54 2°39.564 -999 3.01302 31.942339 -1.050924
2006-02-15 09:11:44 51°10.485 2°39.232 -999 2.99554 31.729117 -1.050924
2006-02-15 09:12:44 51°10.432 2°38.898 -999 3.006607 31.846353 -1.050924
2006-02-15 09:13:44 51°10.377 2°38.567 -999 2.982715 31.553708 -1.050924
2006-02-15 09:14:44 51°10.326 2°38.234 -999 2.966477 31.35749 -1.084634
2006-02-15 09:15:44 51°10.275 2°37.901 -999 2.963064 31.292528 -1.084634
2006-02-15 09:16:44 51°10.225 2°37.568 -999 2.982404 31.495758 -1.118343
2006-02-15 09:17:44 51°10.17 2°37.234 -999 3.014157 31.882576 -1.084634
2006-02-15 09:18:44 51°10.116 2°36.899 -999 3.035983 32.191408 -1.084634
2006-02-15 09:19:44 51°10.066 2°36.565 -999 3.044051 32.284085 -1.084634
2006-02-15 09:20:44 51°10.056 2°36.226 -999 3.042913 32.256345 -1.084634
2006-02-15 09:21:44 51°10.097 2°35.899 -999 3.05874 32.426479 -1.118343
2006-02-15 09:22:44 51°10.198 2°35.624 -999 3.052222 32.309748 -1.084634
2006-02-15 09:23:44 51°10.38 2°35.504 -999 3.062463 32.424838 -0.983506
2006-02-15 09:24:44 51°10.574 2°35.576 -999 3.059257 32.430615 -0.916087
2006-02-15 09:25:44 51°10.743 2°35.754 -999 3.051602 32.363982 -0.916087
2006-02-15 09:26:44 51°10.914 2°35.931 -999 3.060602 32.472445 -0.949796
2006-02-15 09:27:44 51°11.087 2°36.102 -999 3.059464 32.44172 -0.983506
2006-02-15 09:28:44 51°11.259 2°36.283 -999 3.069601 32.532576 -1.017215
2006-02-15 09:29:44 51°11.43 2°36.453 -999 3.070222 32.518598 -1.017215
2006-02-15 09:30:44 51°11.6 2°36.627 -999 3.070532 32.512582 -1.017215
2006-02-15 09:31:44 51°11.773 2°36.798 -999 3.063498 32.450438 -1.050924
2006-02-15 09:32:44 51°11.944 2°36.972 -999 3.055533 32.395629 -1.050924
2006-02-15 09:33:44 51°12.11 2°37.151 -999 3.043844 32.293191 -1.050924
2006-02-15 09:34:44 51°12.279 2°37.323 -999 3.03888 32.2705 -1.017215
2006-02-15 09:35:44 51°12.452 2°37.486 -999 3.039914 32.315392 -1.050924
2006-02-15 09:36:44 51°12.619 2°37.657 -999 3.038363 32.306796 -1.050924
2006-02-15 09:37:44 51°12.794 2°37.818 -999 3.037328 32.299456 -1.050924
2006-02-15 09:38:44 51°12.963 2°37.992 -999 3.035467 32.282385 -1.050924
2006-02-15 09:39:45 51°13.142 2°38.159 -999 3.033501 32.263131 -1.050924
2006-02-15 09:40:44 51°13.311 2°38.33 -999 3.03257 32.249296 -1.084634
2006-02-15 09:41:44 51°13.483 2°38.51 -999 3.035777 32.282178 -1.084634
2006-02-15 09:42:44 51°13.656 2°38.685 -999 3.037846 32.304572 -1.084634
2006-02-15 09:43:44 51°13.83 2°38.855 -999 3.037122 32.295096 -1.050924
2006-02-15 09:44:44 51°14.022 2°38.939 -999 3.037536 32.326978 -1.017215
2006-02-15 09:45:44 51°14.207 2°38.832 -999 3.031847 32.291884 -1.017215
2006-02-15 09:46:44 51°14.384 2°38.675 -999 3.030088 32.287595 -1.017215
2006-02-15 09:47:44 51°14.55 2°38.486 -999 3.034847 32.341717 -1.084634
2006-02-15 09:48:44 51°14.685 2°38.25 -999 3.045604 32.425807 -1.118343
2006-02-15 09:49:44 51°14.818 2°38.005 -999 3.05119 32.477989 -1.118343
2006-02-15 09:50:45 51°14.957 2°37.769 -999 3.055431 32.509467 -1.118343
2006-02-15 09:51:44 51°15.089 2°37.559 -999 3.063085 32.56262 -1.118343
2006-02-15 09:52:44 51°15.226 2°37.331 -999 3.068361 32.597445 -1.152053
2006-02-15 09:53:44 51°15.369 2°37.103 -999 3.072912 32.623726 -1.118343
2006-02-15 09:54:44 51°15.51 2°36.872 -999 3.079739 32.667945 -1.118343
2006-02-15 09:55:45 51°15.694 2°36.724 -999 3.084498 32.708233 -1.084634
2006-02-15 09:56:45 51°15.895 2°36.717 -999 3.080567 32.682514 -1.118343
2006-02-15 09:57:45 51°16.093 2°36.774 -999 3.074567 32.641221 -1.152053
2006-02-15 09:58:44 51°16.287 2°36.825 -999 3.067947 32.605209 -1.118343
2006-02-15 09:59:45 51°16.435 2°36.824 -999 3.064326 32.584987 -1.118343
2006-02-15 10:00:44 51°16.515 2°36.78 -999 3.061534 32.57254 -1.152053
2006-02-15 10:01:45 51°16.552 2°36.759 -999 3.06081 32.570823 -1.152053
2006-02-15 10:02:45 51°16.555 2°36.751 -999 3.059672 32.557432 -1.152053
2006-02-15 10:03:44 51°16.554 2°36.753 -999 3.061223 32.554317 -1.185762
2006-02-15 10:04:44 51°16.551 2°36.756 -999 3.060706 32.55406 -1.219471
2006-02-15 10:05:44 51°16.547 2°36.758 -999 3.058017 32.5331 -1.219471
2006-02-15 10:06:44 51°16.544 2°36.761 -999 3.059879 32.54918 -1.253181
2006-02-15 10:07:44 51°16.542 2°36.765 -999 3.059879 32.548209 -1.253181
2006-02-15 10:08:44 51°16.539 2°36.769 -999 3.059361 32.546009 -1.219471
2006-02-15 10:09:45 51°16.537 2°36.774 -999 3.060706 32.557945 -1.253181
2006-02-15 10:10:45 51°16.535 2°36.777 -999 3.059982 32.550397 -1.253181
2006-02-15 10:11:44 51°16.532 2°36.783 -999 3.06081 32.564991 -1.219471
2006-02-15 10:12:44 51°16.531 2°36.788 -999 3.060603 32.565472 -1.219471
2006-02-15 10:13:45 51°16.54 2°36.781 -999 3.060499 32.566199 -1.219471
2006-02-15 10:14:44 51°16.602 2°36.671 -999 3.060603 32.565472 -1.219471
2006-02-15 10:15:44 51°16.736 2°36.482 -999 3.059258 32.558394 -1.219471
2006-02-15 10:16:44 51°16.911 2°36.311 -999 3.056155 32.535469 -1.219471
2006-02-15 10:17:45 51°17.094 2°36.148 -999 3.055017 32.527902 -1.219471
2006-02-15 10:18:44 51°17.272 2°35.991 -999 3.056051 32.534251 -1.253181
2006-02-15 10:19:44 51°17.452 2°35.837 -999 3.062982 32.575 -1.253181
2006-02-15 10:20:45 51°17.636 2°35.68 -999 3.076326 32.663818 -1.253181
2006-02-15 10:21:44 51°17.777 2°35.471 -999 3.080567 32.694178 -1.253181
2006-02-15 10:22:45 51°17.89 2°35.206 -999 3.08398 32.713829 -1.253181
2006-02-15 10:23:44 51°17.996 2°34.927 -999 3.085532 32.725231 -1.253181
2006-02-15 10:24:44 51°18.106 2°34.645 -999 3.088635 32.747051 -1.253181
2006-02-15 10:25:44 51°18.215 2°34.361 -999 3.096187 32.811288 -1.253181
2006-02-15 10:26:44 51°18.329 2°34.091 -999 3.100635 32.843958 -1.253181
2006-02-15 10:27:44 51°18.442 2°33.82 -999 3.10436 32.865195 -1.253181
2006-02-15 10:28:44 51°18.554 2°33.542 -999 3.106325 32.875556 -1.253181
2006-02-15 10:29:45 51°18.67 2°33.273 -999 3.108704 32.892705 -1.219471
2006-02-15 10:30:44 51°18.78 2°33.003 -999 3.110773 32.8955 -1.253181
2006-02-15 10:31:45 51°18.891 2°32.724 -999 3.111911 32.902002 -1.253181
2006-02-15 10:32:44 51°19 2°32.459 -999 3.115429 32.934392 -1.253181
2006-02-15 10:33:45 51°19.115 2°32.178 -999 3.118843 32.952894 -1.253181
2006-02-15 10:34:44 51°19.224 2°31.899 -999 3.122463 32.982566 -1.28689
2006-02-15 10:35:44 51°19.336 2°31.624 -999 3.123808 32.983671 -1.28689
2006-02-15 10:36:45 51°19.453 2°31.343 -999 3.127739 33.008174 -1.28689
2006-02-15 10:37:44 51°19.568 2°31.078 -999 3.131671 33.035578 -1.28689
2006-02-15 10:38:44 51°19.685 2°30.805 -999 3.138292 33.070964 -1.28689
2006-02-15 10:39:45 51°19.805 2°30.535 -999 3.149051 33.135032 -1.28689
2006-02-15 10:40:44 51°19.881 2°30.362 -999 3.175951 33.306663 -1.28689
2006-02-15 10:41:44 51°19.937 2°30.26 -999 3.185367 33.361377 -1.28689
2006-02-15 10:42:44 51°19.969 2°30.224 -999 3.187539 33.355402 -1.28689
2006-02-15 10:43:45 51°20.004 2°30.186 -999 3.191574 33.392437 -1.253181
2006-02-15 10:44:44 51°20.026 2°30.158 -999 3.193127 33.404579 -1.219471
2006-02-15 10:45:45 51°20.039 2°30.167 -999 3.191678 33.378053 -1.253181
2006-02-15 10:46:44 51°20.049 2°30.191 -999 3.194368 33.395587 -1.219471
2006-02-15 10:47:44 51°20.055 2°30.219 -999 3.195506 33.399034 -1.253181
2006-02-15 10:48:45 51°20.061 2°30.247 -999 3.197058 33.414085 -1.253181
2006-02-15 10:49:45 51°20.066 2°30.277 -999 3.194989 33.387205 -1.28689
2006-02-15 10:50:44 51°20.072 2°30.308 -999 3.197472 33.413035 -1.28689
2006-02-15 10:51:44 51°20.077 2°30.337 -999 3.196644 33.401506 -1.28689
2006-02-15 10:52:45 51°20.085 2°30.368 -999 3.192609 33.3616 -1.28689
2006-02-15 10:53:44 51°20.094 2°30.398 -999 3.19592 33.397013 -1.28689
2006-02-15 10:54:45 51°20.151 2°30.412 -999 3.196437 33.394246 -1.28689
2006-02-15 10:55:45 51°20.243 2°30.498 -999 3.196023 33.392373 -1.28689
2006-02-15 10:56:45 51°20.285 2°30.753 -999 3.197782 33.394252 -1.28689
2006-02-15 10:57:45 51°20.343 2°31.084 -999 3.192919 33.354502 -1.253181
2006-02-15 10:58:45 51°20.407 2°31.419 -999 3.194471 33.383161 -1.253181
2006-02-15 10:59:45 51°20.469 2°31.751 -999 3.192919 33.360333 -1.253181
2006-02-15 11:00:44 51°20.527 2°32.082 -999 3.184538 33.293413 -1.28689
2006-02-15 11:01:45 51°20.598 2°32.407 -999 3.182676 33.318487 -1.28689
2006-02-15 11:02:45 51°20.682 2°32.715 -999 3.143878 33.075743 -1.28689
2006-02-15 11:03:44 51°20.758 2°33.028 -999 3.129705 32.987326 -1.3206
2006-02-15 11:04:45 51°20.839 2°33.358 -999 3.120808 32.917499 -1.3206
2006-02-15 11:05:44 51°20.919 2°33.662 -999 3.114187 32.869309 -1.3206
2006-02-15 11:06:44 51°21.02 2°33.959 -999 3.119256 32.937286 -1.3206
2006-02-15 11:07:45 51°21.114 2°34.267 -999 3.119773 32.942358 -1.3206
2006-02-15 11:08:45 51°21.119 2°34.608 -999 3.115325 32.903982 -1.28689
2006-02-15 11:09:44 51°21.075 2°34.937 -999 3.111497 32.889374 -1.28689
2006-02-15 11:10:45 51°21.026 2°35.279 -999 3.104256 32.834788 -1.28689
2006-02-15 11:11:44 51°20.979 2°35.61 -999 3.097118 32.796898 -1.28689
2006-02-15 11:12:45 51°20.938 2°35.948 -999 3.094842 32.78287 -1.28689
2006-02-15 11:13:45 51°20.901 2°36.252 -999 3.094635 32.781418 -1.253181
2006-02-15 11:14:45 51°20.862 2°36.554 -999 3.082532 32.699749 -1.28689
2006-02-15 11:15:44 51°20.84 2°36.859 -999 3.069498 32.616646 -1.28689
2006-02-15 11:16:45 51°20.815 2°37.172 -999 3.060913 32.556493 -1.28689
2006-02-15 11:17:45 51°20.796 2°37.478 -999 3.056568 32.525769 -1.28689
2006-02-15 11:18:44 51°20.774 2°37.781 -999 3.052431 32.497453 -1.253181
2006-02-15 11:19:45 51°20.747 2°38.099 -999 3.048087 32.468618 -1.253181
2006-02-15 11:20:44 51°20.73 2°38.404 -999 3.045294 32.451244 -1.253181
2006-02-15 11:21:45 51°20.733 2°38.717 -999 3.043639 32.437565 -1.253181
2006-02-15 11:22:45 51°20.738 2°38.979 -999 3.041467 32.421667 -1.219471
2006-02-15 11:23:45 51°20.727 2°39.228 -999 3.039295 32.409643 -1.219471
2006-02-15 11:24:44 51°20.637 2°39.419 -999 3.03764 32.39789 -1.219471
2006-02-15 11:25:45 51°20.497 2°39.472 -999 3.035985 32.381284 -1.219471
2006-02-15 11:26:45 51°20.425 2°39.321 -999 3.034019 32.368772 -1.219471
2006-02-15 11:27:44 51°20.489 2°39.143 -999 3.033296 32.37187 -1.219471
2006-02-15 11:28:45 51°20.584 2°38.957 -999 3.035468 32.388764 -1.253181
2006-02-15 11:29:44 51°20.715 2°38.822 -999 3.037847 32.404211 -1.253181
2006-02-15 11:30:44 51°20.861 2°38.688 -999 3.038984 32.411806 -1.253181
2006-02-15 11:31:44 51°21.023 2°38.566 -999 3.040536 32.420396 -1.253181
2006-02-15 11:32:44 51°21.208 2°38.562 -999 3.044466 32.445375 -1.253181
2006-02-15 11:33:45 51°21.396 2°38.649 -999 3.048294 32.472996 -1.253181
2006-02-15 11:34:44 51°21.581 2°38.782 -999 3.052638 32.505715 -1.253181
2006-02-15 11:35:44 51°21.767 2°38.955 -999 3.057499 32.534783 -1.28689
2006-02-15 11:36:44 51°21.95 2°39.138 -999 3.064016 32.579394 -1.28689
2006-02-15 11:37:44 51°22.111 2°39.372 -999 3.072912 32.635381 -1.28689
2006-02-15 11:38:45 51°22.277 2°39.608 -999 3.080981 32.688342 -1.28689
2006-02-15 11:39:44 51°22.434 2°39.851 -999 3.095463 32.778476 -1.3206
2006-02-15 11:40:44 51°22.588 2°40.104 -999 3.10498 32.854938 -1.253181
2006-02-15 11:41:44 51°22.73 2°40.379 -999 3.112118 32.903449 -1.28689
2006-02-15 11:42:44 51°22.873 2°40.65 -999 3.116153 32.926307 -1.28689
2006-02-15 11:43:44 51°23.013 2°40.919 -999 3.120911 32.957606 -1.253181
2006-02-15 11:44:44 51°23.159 2°41.188 -999 3.119049 32.9446 -1.28689
2006-02-15 11:45:45 51°23.308 2°41.461 -999 3.117808 32.939822 -1.28689
2006-02-15 11:46:45 51°23.457 2°41.726 -999 3.118429 32.944159 -1.28689
2006-02-15 11:47:44 51°23.589 2°42.006 -999 3.11998 32.955486 -1.28689
2006-02-15 11:48:45 51°23.724 2°42.301 -999 3.121118 32.96392 -1.28689
2006-02-15 11:49:44 51°23.852 2°42.588 -999 3.121946 32.966777 -1.28689
2006-02-15 11:50:44 51°23.983 2°42.881 -999 3.122153 32.970169 -1.28689
2006-02-15 11:51:45 51°24.125 2°43.165 -999 3.123187 32.973495 -1.28689
2006-02-15 11:52:45 51°24.258 2°43.458 -999 3.124325 32.981924 -1.28689
2006-02-15 11:53:44 51°24.379 2°43.754 -999 3.12567 32.988873 -1.28689
2006-02-15 11:54:45 51°24.506 2°44.06 -999 3.126601 32.998776 -1.28689
2006-02-15 11:55:45 51°24.619 2°44.372 -999 3.127636 32.999174 -1.28689
2006-02-15 11:56:44 51°24.728 2°44.685 -999 3.128981 33.008064 -1.28689
2006-02-15 11:57:45 51°24.825 2°45.02 -999 3.129602 33.011417 -1.28689
2006-02-15 11:58:45 51°24.934 2°45.341 -999 3.129808 33.013833 -1.28689
2006-02-15 11:59:44 51°25.015 2°45.669 -999 3.129291 33.010714 -1.28689
2006-02-15 12:00:45 51°25.105 2°46.006 -999 3.127739 32.999408 -1.28689
2006-02-15 12:01:45 51°25.206 2°46.332 -999 3.12505 32.984542 -1.28689
2006-02-15 12:02:45 51°25.302 2°46.663 -999 3.122463 32.961139 -1.3206
2006-02-15 12:03:45 51°25.399 2°46.992 -999 3.119463 32.939704 -1.3206
2006-02-15 12:04:44 51°25.505 2°47.308 -999 3.116877 32.924068 -1.28689
2006-02-15 12:05:45 51°25.617 2°47.628 -999 3.114497 32.905005 -1.28689
2006-02-15 12:06:45 51°25.723 2°47.941 -999 3.112118 32.883017 -1.3206
2006-02-15 12:07:45 51°25.816 2°48.173 -999 3.108601 32.868131 -1.28689
2006-02-15 12:08:45 51°25.893 2°48.293 -999 3.106325 32.848307 -1.3206
2006-02-15 12:09:45 51°25.948 2°48.351 -999 3.105911 32.84152 -1.3206
2006-02-15 12:10:45 51°25.983 2°48.395 -999 3.106118 32.840053 -1.28689
2006-02-15 12:11:45 51°25.992 2°48.441 -999 3.105497 32.83765 -1.28689
2006-02-15 12:12:45 51°26.004 2°48.491 -999 3.10498 32.835486 -1.28689
2006-02-15 12:13:45 51°26.017 2°48.543 -999 3.105083 32.83378 -1.28689
2006-02-15 12:14:45 51°26.031 2°48.593 -999 3.10498 32.833542 -1.28689
2006-02-15 12:15:45 51°26.045 2°48.642 -999 3.104773 32.83112 -1.28689
2006-02-15 12:16:44 51°26.06 2°48.691 -999 3.105083 32.828921 -1.28689
2006-02-15 12:17:45 51°26.074 2°48.742 -999 3.104463 32.827489 -1.28689
2006-02-15 12:18:45 51°26.118 2°48.785 -999 3.104152 32.824829 -1.28689
2006-02-15 12:19:45 51°26.187 2°48.934 -999 3.104566 32.823841 -1.28689
2006-02-15 12:20:44 51°26.118 2°49.146 -999 3.104669 32.819223 -1.3206
2006-02-15 12:21:45 51°25.977 2°49.289 -999 3.100842 32.771543 -1.28689
2006-02-15 12:22:44 51°25.814 2°49.355 -999 3.097221 32.750523 -1.28689
2006-02-15 12:23:45 51°25.637 2°49.395 -999 3.094738 32.735045 -1.28689
2006-02-15 12:24:45 51°25.472 2°49.44 -999 3.091531 32.716898 -1.28689
2006-02-15 12:25:45 51°25.305 2°49.49 -999 3.086773 32.682499 -1.28689
2006-02-15 12:26:45 51°25.139 2°49.536 -999 3.081497 32.643946 -1.253181
2006-02-15 12:27:45 51°24.971 2°49.581 -999 3.075601 32.604857 -1.253181
2006-02-15 12:28:45 51°24.806 2°49.632 -999 3.071567 32.581754 -1.253181
2006-02-15 12:29:45 51°24.639 2°49.689 -999 3.069291 32.564737 -1.253181
2006-02-15 12:30:45 51°24.471 2°49.735 -999 3.067222 32.561767 -1.253181
2006-02-15 12:31:45 51°24.302 2°49.763 -999 3.065567 32.559779 -1.253181
2006-02-15 12:32:45 51°24.133 2°49.79 -999 3.06505 32.557581 -1.219471
2006-02-15 12:33:45 51°23.967 2°49.823 -999 3.065671 32.562933 -1.219471
2006-02-15 12:34:44 51°23.802 2°49.855 -999 3.067016 32.569032 -1.253181
2006-02-15 12:35:45 51°23.632 2°49.885 -999 3.065671 32.565843 -1.253181
2006-02-15 12:36:45 51°23.463 2°49.916 -999 3.062361 32.548284 -1.219471
2006-02-15 12:37:45 51°23.293 2°49.948 -999 3.059775 32.528553 -1.219471
2006-02-15 12:38:45 51°23.108 2°49.967 -999 3.057499 32.514401 -1.219471
2006-02-15 12:39:45 51°22.926 2°49.991 -999 3.056568 32.504422 -1.219471
2006-02-15 12:40:45 51°22.741 2°50.015 -999 3.055637 32.494443 -1.219471
2006-02-15 12:41:45 51°22.557 2°50.034 -999 3.055017 32.49393 -1.219471
2006-02-15 12:42:45 51°22.368 2°50.047 -999 3.053775 32.488054 -1.185762
2006-02-15 12:43:45 51°22.176 2°50.065 -999 3.051914 32.474873 -1.185762
2006-02-15 12:44:45 51°21.981 2°50.077 -999 3.048293 32.451653 -1.152053
2006-02-15 12:45:45 51°21.785 2°50.092 -999 3.043328 32.42033 -1.152053
2006-02-15 12:46:45 51°21.592 2°50.108 -999 3.03795 32.380218 -1.152053
2006-02-15 12:47:44 51°21.403 2°50.122 -999 3.031227 32.328086 -1.118343
2006-02-15 12:48:45 51°21.208 2°50.138 -999 3.020883 32.253495 -1.084634
2006-02-15 12:49:44 51°21.022 2°50.163 -999 3.015815 32.207211 -1.152053
2006-02-15 12:50:45 51°20.83 2°50.181 -999 3.007851 32.125751 -1.152053
2006-02-15 12:51:45 51°20.643 2°50.201 -999 3.001955 32.058094 -1.152053
2006-02-15 12:52:45 51°20.453 2°50.241 -999 2.999266 32.029244 -1.185762
2006-02-15 12:53:45 51°20.26 2°50.281 -999 2.997094 32.010342 -1.152053
2006-02-15 12:54:45 51°20.065 2°50.335 -999 2.995853 32.006267 -1.118343
2006-02-15 12:55:45 51°19.869 2°50.398 -999 2.992854 31.990082 -1.050924
2006-02-15 12:56:44 51°19.675 2°50.456 -999 2.990992 31.969056 -1.017215
2006-02-15 12:57:45 51°19.476 2°50.514 -999 2.989751 31.953438 -0.949796
2006-02-15 12:58:44 51°19.283 2°50.566 -999 2.988406 31.943322 -0.916087
2006-02-15 12:59:45 51°19.086 2°50.627 -999 2.987682 31.934771 -0.916087
2006-02-15 13:00:45 51°18.893 2°50.682 -999 2.986855 31.921161 -0.882377
2006-02-15 13:01:44 51°18.74 2°50.73 -999 2.985407 31.900228 -0.848668
2006-02-15 13:02:44 51°18.645 2°50.788 -999 2.984062 31.88148 -0.848668
2006-02-15 13:03:44 51°18.57 2°50.843 -999 2.983545 31.871544 -0.814958
2006-02-15 13:04:44 51°18.551 2°50.901 -999 2.983338 31.865272 -0.814958
2006-02-15 13:05:44 51°18.565 2°50.962 -999 2.983442 31.862663 -0.848668
2006-02-15 13:06:44 51°18.585 2°51.022 -999 2.983338 31.861443 -0.814958
2006-02-15 13:07:44 51°18.605 2°51.081 -999 2.983442 31.861706 -0.848668
2006-02-15 13:08:45 51°18.624 2°51.142 -999 2.983545 31.861012 -0.848668
2006-02-15 13:09:45 51°18.641 2°51.203 -999 2.983855 31.859887 -0.814958
2006-02-15 13:10:44 51°18.657 2°51.261 -999 2.983959 31.86015 -0.848668
2006-02-15 13:11:45 51°18.621 2°51.358 -999 2.983855 31.85893 -0.814958
2006-02-15 13:12:45 51°18.459 2°51.504 -999 2.984062 31.854673 -0.814958
2006-02-15 13:13:45 51°18.273 2°51.629 -999 2.984166 31.86259 -0.848668
2006-02-15 13:14:44 51°18.092 2°51.755 -999 2.987165 31.901808 -0.882377
2006-02-15 13:15:45 51°17.906 2°51.892 -999 2.990888 31.9304 -0.916087
2006-02-15 13:16:45 51°17.724 2°52.024 -999 2.990888 31.929441 -0.916087
2006-02-15 13:17:45 51°17.541 2°52.162 -999 2.988303 31.908523 -0.882377
2006-02-15 13:18:45 51°17.36 2°52.308 -999 2.986648 31.89858 -0.949796
2006-02-15 13:19:44 51°17.196 2°52.5 -999 2.982718 31.864652 -0.882377
2006-02-15 13:20:45 51°17.037 2°52.737 -999 2.982408 31.868652 -0.916087
2006-02-15 13:21:44 51°16.889 2°52.972 -999 2.986338 31.893961 -0.916087
2006-02-15 13:22:44 51°16.737 2°53.215 -999 2.988199 31.914012 -0.882377
2006-02-15 13:23:45 51°16.586 2°53.478 -999 2.987993 31.919242 -0.916087
2006-02-15 13:24:45 51°16.434 2°53.734 -999 2.986338 31.894919 -0.882377
2006-02-15 13:25:44 51°16.304 2°53.949 -999 2.980546 31.836148 -0.814958
2006-02-15 13:26:44 51°16.248 2°54.129 -999 2.987061 31.866127 -0.882377
2006-02-15 13:27:44 51°16.263 2°54.259 -999 2.998851 31.929462 -0.916087
2006-02-15 13:28:44 51°16.285 2°54.326 -999 3.002885 31.953018 -0.916087
2006-02-15 13:29:44 51°16.305 2°54.396 -999 3.003919 31.95849 -0.916087
2006-02-15 13:30:45 51°16.322 2°54.464 -999 3.004643 31.962225 -0.916087
2006-02-15 13:31:44 51°16.338 2°54.529 -999 3.005057 31.964222 -0.882377
2006-02-15 13:32:44 51°16.354 2°54.594 -999 3.005367 31.963092 -0.882377
2006-02-15 13:33:44 51°16.371 2°54.659 -999 3.005367 31.964047 -0.882377
2006-02-15 13:34:45 51°16.376 2°54.729 -999 3.005264 31.962831 -0.882377
2006-02-15 13:35:44 51°16.348 2°54.776 -999 3.005367 31.962137 -0.882377
2006-02-15 13:36:45 51°16.319 2°54.769 -999 3.004436 31.959793 -0.882377
2006-02-15 13:37:45 51°16.279 2°54.722 -999 3.003506 31.955537 -0.882377
2006-02-15 13:38:45 51°16.147 2°54.673 -999 3.002575 31.95128 -0.882377
2006-02-15 13:39:45 51°15.965 2°54.631 -999 2.994301 31.874971 -0.882377
2006-02-15 13:40:45 51°15.781 2°54.582 -999 2.973719 31.706067 -0.680121
2006-02-15 13:41:45 51°15.599 2°54.532 -999 2.965238 31.606203 -0.74754
2006-02-15 13:42:44 51°15.42 2°54.479 -999 2.97134 31.62966 -0.814958
2006-02-15 13:43:45 51°15.236 2°54.427 -999 2.98644 31.740734 -0.814958
2006-02-15 13:44:45 51°15.052 2°54.402 -999 2.991093 31.739431 -0.814958
2006-02-15 13:45:44 51°14.872 2°54.515 -999 2.985818 31.671928 -0.882377
2006-02-15 13:46:45 51°14.693 2°54.68 -999 2.981888 31.644749 -0.680121
2006-02-15 13:47:44 51°14.521 2°54.854 -999 2.975683 31.605018 -0.545283
2006-02-15 13:48:45 51°14.364 2°55.077 -999 2.953034 31.377862 -0.578993
2006-02-15 13:49:44 51°14.247 2°55.296 -999 2.871339 30.378484 -0.477864
2006-02-15 13:50:45 51°14.126 2°55.414 -999 2.635433 27.547017 -0.477864
2006-02-15 13:51:45 51°14.013 2°55.498 -999 2.530234 26.370169 -0.511574
2006-02-15 13:52:45 51°13.917 2°55.568 -999 2.495001 25.980459 -0.410446
2006-02-15 13:53:45 51°13.831 2°55.631 -999 2.473614 25.740758 -0.275608
2006-02-15 13:54:44 51°13.765 2°55.704 -999 2.495208 26.004511 -0.275608
2006-02-15 13:55:45 51°13.705 2°55.8 -999 2.351717 24.309106 -0.073352
2006-02-15 13:56:45 51°13.659 2°55.907 -999 2.350891 24.309867 -0.208189
2006-02-15 13:57:45 51°13.624 2°55.99 -999 2.352131 24.381937 -0.477864
2006-02-15 13:58:44 51°13.607 2°56.055 -999 2.369897 24.605088 -0.511574
2006-02-15 13:59:46 51°13.599 2°56.088 -999 0.125488 1.045136 -1.421728